Maersk Bali — 9V7499 — position and weather

sailwx.info

Track history (hours):
 
Tides and Currents Weather Stations Pressure Air Temp Water Temp Dewpoint Dewpoint Depression Visibility Wind Speed Wind Dir Waves Ship Positions

Maersk Bali

Last reported at 2016-Aug-29 08:33 UTC. Time now 2016-Aug-29 08:57 UTC.
Position N 35°50' E 015°01'.

Length 223 m; draft 10.2 m.

Type: Ship (hazmat cat A). MMSI: 563102000.

Date/timePositionNaut miles runAvg speedWind from/ knotsBaromVisibWave heightAir tempDewpointWater temp
2016-Aug-29 08:33N 35°50' E 015°01'1515.5
2016-Aug-29 07:34N 35°48' E 014°42'8 7.9
2016-Aug-29 06:33N 35°49' E 014°33'0 0.0
2016-Aug-29 05:32N 35°49' E 014°33'0 0.0
2016-Aug-29 03:11N 35°49' E 014°33'0 0.0
2016-Aug-29 02:32N 35°49' E 014°33'0 0.0
2016-Aug-28 22:29N 35°49' E 014°33'0 0.0
2016-Aug-28 21:32N 35°49' E 014°33'0 0.0
2016-Aug-28 20:29N 35°49' E 014°33'0 0.0
2016-Aug-28 17:29N 35°49' E 014°33'0 0.0
2016-Aug-28 16:32N 35°49' E 014°33'0 0.0
2016-Aug-28 15:32N 35°49' E 014°33'0 0.0
2016-Aug-28 14:29N 35°49' E 014°33'0 0.0
2016-Aug-28 13:34N 35°49' E 014°33'3 3.2
2016-Aug-28 12:33N 35°46' E 014°32'1111.2
2016-Aug-28 11:33N 35°47' E 014°19'1313.4
2016-Aug-28 10:33N 35°54' E 014°05'1413.6
2016-Aug-28 09:33N 36°02' E 013°51'1413.6
2016-Aug-28 08:33N 36°09' E 013°37'1413.6
2016-Aug-28 07:33N 36°16' E 013°23'1413.8
2016-Aug-28 06:33N 36°24' E 013°08'1414.2
2016-Aug-28 05:33N 36°32' E 012°54'1414.1
2016-Aug-28 04:33N 36°39' E 012°38'2014.0
2016-Aug-28 03:08N 36°50' E 012°18'8214.2
2016-Aug-27 21:20N 37°26' E 010°45'1113.8
2016-Aug-27 20:33N 37°31' E 010°33'4914.0
2016-Aug-27 17:05N 37°36' E 009°32'3513.8
2016-Aug-27 14:33N 37°36' E 008°48'1313.4
2016-Aug-27 13:34N 37°35' E 008°31'66113.5
2016-Aug-25 12:27N 36°04' W 005°07'1112.7
2016-Aug-25 11:34N 36°04' W 005°21'6 6.1
2016-Aug-25 10:32N 36°08' W 005°26'0 0.0
2016-Aug-25 04:29N 36°08' W 005°26'0 0.0
2016-Aug-25 03:32N 36°08' W 005°26'0 0.0
2016-Aug-25 02:32N 36°08' W 005°26'0 0.0
2016-Aug-25 01:32N 36°08' W 005°26'0 0.0
2016-Aug-24 22:29N 36°08' W 005°26'0 0.0
2016-Aug-24 21:32N 36°08' W 005°26'0 0.0
2016-Aug-24 18:29N 36°08' W 005°26'0 0.0
2016-Aug-24 16:29N 36°08' W 005°26'0 0.0
2016-Aug-24 15:17N 36°08' W 005°26'0 0.0
2016-Aug-24 14:29N 36°08' W 005°26'0 0.0
2016-Aug-24 13:29N 36°08' W 005°26'0 0.0
2016-Aug-24 12:26N 36°08' W 005°26'0 0.0
2016-Aug-24 11:06N 36°08' W 005°26'2 2.6
2016-Aug-24 10:12N 36°07' W 005°23'6 9.8
2016-Aug-24 09:33N 36°01' W 005°23'15012.5
2016-Aug-23 21:31N 35°53' W 008°28'1313.2
2016-Aug-23 20:32N 35°53' W 008°44'11713.0
2016-Aug-23 11:30N 35°49' W 011°09'3812.8
2016-Aug-23 08:33N 35°47' W 011°55'1312.9
2016-Aug-23 07:33N 35°46' W 012°11'1312.8
2016-Aug-23 06:31N 35°44' W 012°27'10412.8
2016-Aug-22 22:24N 35°38' W 014°35'1112.7
2016-Aug-22 21:33N 35°37' W 014°48'1912.8
2016-Aug-22 20:06N 35°35' W 015°11'4612.9
2016-Aug-22 16:33N 35°31' W 016°07'9513.0
2016-Aug-22 09:17N 35°21' W 018°03'1013.6
2016-Aug-22 08:33N 35°19' W 018°15'  
Track history (hours):
 
Tides and Currents Weather Stations Pressure Air Temp Water Temp Dewpoint Dewpoint Depression Visibility Wind Speed Wind Dir Waves Ship Positions

Maersk Bali

Last reported at 2016-Aug-29 08:33 UTC. Time now 2016-Aug-29 08:57 UTC.
Position N 35°50' E 015°01'.

Length 223 m; draft 10.2 m.

Type: Ship (hazmat cat A). MMSI: 563102000.

Date/timePositionNaut miles runAvg speedWind from/ knotsBaromVisibWave heightAir tempDewpointWater temp
2016-Aug-29 08:33N 35°50' E 015°01'1515.5
2016-Aug-29 07:34N 35°48' E 014°42'8 7.9
2016-Aug-29 06:33N 35°49' E 014°33'0 0.0
2016-Aug-29 05:32N 35°49' E 014°33'0 0.0
2016-Aug-29 03:11N 35°49' E 014°33'0 0.0
2016-Aug-29 02:32N 35°49' E 014°33'0 0.0
2016-Aug-28 22:29N 35°49' E 014°33'0 0.0
2016-Aug-28 21:32N 35°49' E 014°33'0 0.0
2016-Aug-28 20:29N 35°49' E 014°33'0 0.0
2016-Aug-28 17:29N 35°49' E 014°33'0 0.0
2016-Aug-28 16:32N 35°49' E 014°33'0 0.0
2016-Aug-28 15:32N 35°49' E 014°33'0 0.0
2016-Aug-28 14:29N 35°49' E 014°33'0 0.0
2016-Aug-28 13:34N 35°49' E 014°33'3 3.2
2016-Aug-28 12:33N 35°46' E 014°32'1111.2
2016-Aug-28 11:33N 35°47' E 014°19'1313.4
2016-Aug-28 10:33N 35°54' E 014°05'1413.6
2016-Aug-28 09:33N 36°02' E 013°51'1413.6
2016-Aug-28 08:33N 36°09' E 013°37'1413.6
2016-Aug-28 07:33N 36°16' E 013°23'1413.8
2016-Aug-28 06:33N 36°24' E 013°08'1414.2
2016-Aug-28 05:33N 36°32' E 012°54'1414.1
2016-Aug-28 04:33N 36°39' E 012°38'2014.0
2016-Aug-28 03:08N 36°50' E 012°18'8214.2
2016-Aug-27 21:20N 37°26' E 010°45'1113.8
2016-Aug-27 20:33N 37°31' E 010°33'4914.0
2016-Aug-27 17:05N 37°36' E 009°32'3513.8
2016-Aug-27 14:33N 37°36' E 008°48'1313.4
2016-Aug-27 13:34N 37°35' E 008°31'66113.5
2016-Aug-25 12:27N 36°04' W 005°07'1112.7
2016-Aug-25 11:34N 36°04' W 005°21'6 6.1
2016-Aug-25 10:32N 36°08' W 005°26'0 0.0
2016-Aug-25 04:29N 36°08' W 005°26'0 0.0
2016-Aug-25 03:32N 36°08' W 005°26'0 0.0
2016-Aug-25 02:32N 36°08' W 005°26'0 0.0
2016-Aug-25 01:32N 36°08' W 005°26'0 0.0
2016-Aug-24 22:29N 36°08' W 005°26'0 0.0
2016-Aug-24 21:32N 36°08' W 005°26'0 0.0
2016-Aug-24 18:29N 36°08' W 005°26'0 0.0
2016-Aug-24 16:29N 36°08' W 005°26'0 0.0
2016-Aug-24 15:17N 36°08' W 005°26'0 0.0
2016-Aug-24 14:29N 36°08' W 005°26'0 0.0
2016-Aug-24 13:29N 36°08' W 005°26'0 0.0
2016-Aug-24 12:26N 36°08' W 005°26'0 0.0
2016-Aug-24 11:06N 36°08' W 005°26'2 2.6
2016-Aug-24 10:12N 36°07' W 005°23'6 9.8
2016-Aug-24 09:33N 36°01' W 005°23'15012.5
2016-Aug-23 21:31N 35°53' W 008°28'1313.2
2016-Aug-23 20:32N 35°53' W 008°44'11713.0
2016-Aug-23 11:30N 35°49' W 011°09'3812.8
2016-Aug-23 08:33N 35°47' W 011°55'1312.9
2016-Aug-23 07:33N 35°46' W 012°11'1312.8
2016-Aug-23 06:31N 35°44' W 012°27'10412.8
2016-Aug-22 22:24N 35°38' W 014°35'1112.7
2016-Aug-22 21:33N 35°37' W 014°48'1912.8
2016-Aug-22 20:06N 35°35' W 015°11'4612.9
2016-Aug-22 16:33N 35°31' W 016°07'9513.0
2016-Aug-22 09:17N 35°21' W 018°03'1013.6
2016-Aug-22 08:33N 35°19' W 018°15'  

Dump ship's entire track history